Time;durP1;ratioP1;P1;durP2;ratioP2;P2;SDS_P1;SDS_P2;PMS_P1;PMS_P2;Temp;Humidity;BMP_temperature;BMP_pressure;BME280_temperature;BME280_humidity;BME280_pressure;Samples;Min_cycle;Max_cycle;Signal;HPM_P1;HPM_P2
2021/11/05 00:00:08;;;;;;;54.30;30.98;;;;;;;6.18;100.00;100715.88;681480;29;1458;-83
2021/11/05 00:00:35;;;;;;;52.15;31.10;;;;;;;6.16;100.00;100707.19;680075;29;5207;-83
2021/11/05 00:00:56;;;;;;;53.75;31.02;;;;;;;6.14;100.00;100693.34;678139;29;1022;-83
2021/11/05 00:01:17;;;;;;;52.97;30.85;;;;;;;6.11;100.00;100701.94;680126;28;4404;-83
2021/11/05 00:01:45;;;;;;;52.47;31.23;;;;;;;6.09;100.00;100714.06;677644;29;2310;-83
2021/11/05 00:02:05;;;;;;;52.25;30.73;;;;;;;6.07;100.00;100730.44;680989;28;4841;-83
2021/11/05 00:02:29;;;;;;;50.80;30.85;;;;;;;6.07;100.00;100715.72;681515;28;1422;-83
2021/11/05 00:03:11;;;;;;;54.22;31.38;;;;;;;6.05;100.00;100727.84;682108;28;1165;-83
2021/11/05 00:03:34;;;;;;;66.15;34.88;;;;;;;6.04;100.00;100713.09;676496;29;5508;-83
2021/11/05 00:03:54;;;;;;;61.60;34.10;;;;;;;6.00;100.00;100719.09;676364;28;2132;-84
2021/11/05 00:04:15;;;;;;;55.85;32.78;;;;;;;6.01;100.00;100715.66;675918;28;4326;-83
2021/11/05 00:04:35;;;;;;;56.87;32.40;;;;;;;6.00;100.00;100719.09;672798;29;3436;-83
2021/11/05 00:04:57;;;;;;;61.30;32.95;;;;;;;5.96;100.00;100733.69;678548;29;1251;-83
2021/11/05 00:05:17;;;;;;;61.05;33.35;;;;;;;5.96;100.00;100733.69;680774;29;1419;-83
2021/11/05 00:05:38;;;;;;;59.30;33.13;;;;;;;5.96;100.00;100712.09;681015;28;1612;-82
2021/11/05 00:05:58;;;;;;;59.22;32.28;;;;;;;5.94;100.00;100713.75;683180;28;1477;-82
2021/11/05 00:06:19;;;;;;;58.13;32.17;;;;;;;5.93;100.00;100732.81;680948;28;1631;-83
2021/11/05 00:06:39;;;;;;;61.03;32.25;;;;;;;5.92;100.00;100707.69;678385;29;1180;-83
2021/11/05 00:07:00;;;;;;;62.37;32.47;;;;;;;5.91;100.00;100716.31;675297;29;4422;-82
2021/11/05 00:07:21;;;;;;;60.70;32.83;;;;;;;5.91;100.00;100725.00;676881;29;3931;-84
2021/11/05 00:07:41;;;;;;;57.88;32.70;;;;;;;5.92;100.00;100733.66;678574;29;1408;-83
2021/11/05 00:08:11;;;;;;;59.05;31.92;;;;;;;5.90;100.00;100728.44;676092;29;1454;-84
2021/11/05 00:08:32;;;;;;;56.20;31.20;;;;;;;5.89;100.00;100726.69;678575;29;1423;-83
2021/11/05 00:09:01;;;;;;;54.72;30.95;;;;;;;5.90;100.00;100737.94;679668;29;1331;-83
2021/11/05 00:09:22;;;;;;;55.60;31.63;;;;;;;5.90;100.00;100737.94;681610;28;5643;-85
2021/11/05 00:09:48;;;;;;;59.17;32.58;;;;;;;5.89;100.00;100712.84;680309;28;4749;-84
2021/11/05 00:10:09;;;;;;;58.33;31.58;;;;;;;5.88;100.00;100745.69;679270;28;5158;-83
2021/11/05 00:10:30;;;;;;;57.45;31.35;;;;;;;5.89;100.00;100723.22;681264;28;3623;-83
2021/11/05 00:10:55;;;;;;;55.38;31.00;;;;;;;5.87;100.00;100728.41;676506;29;1486;-82
2021/11/05 00:11:16;;;;;;;57.08;31.67;;;;;;;5.90;100.00;100746.59;675512;29;4941;-84
2021/11/05 00:11:37;;;;;;;58.08;31.42;;;;;;;5.92;100.00;100746.63;675629;29;1558;-82
2021/11/05 00:12:00;;;;;;;56.50;31.60;;;;;;;5.89;100.00;100741.38;678450;28;1585;-83
2021/11/05 00:12:20;;;;;;;57.70;31.17;;;;;;;5.89;100.00;100751.75;680870;29;4963;-83
2021/11/05 00:12:41;;;;;;;55.90;30.40;;;;;;;5.89;100.00;100751.75;680555;28;1236;-83
2021/11/05 00:13:02;;;;;;;55.40;30.23;;;;;;;5.90;100.00;100748.34;676331;29;4403;-83
2021/11/05 00:13:25;;;;;;;56.47;30.75;;;;;;;5.89;100.00;100741.38;677010;29;3832;-83
2021/11/05 00:13:45;;;;;;;55.88;30.58;;;;;;;5.88;100.00;100740.50;676562;29;5180;-83
2021/11/05 00:14:06;;;;;;;53.30;30.38;;;;;;;5.90;100.00;100728.44;675251;29;1599;-83
2021/11/05 00:14:26;;;;;;;55.47;30.67;;;;;;;5.90;100.00;100741.41;675204;29;1075;-83
2021/11/05 00:14:47;;;;;;;54.20;30.23;;;;;;;5.91;100.00;100739.69;674642;29;1358;-83
2021/11/05 00:15:08;;;;;;;51.13;29.40;;;;;;;5.92;100.00;100737.09;672776;29;1584;-83
2021/11/05 00:15:28;;;;;;;51.75;29.42;;;;;;;5.92;100.00;100731.91;671830;29;1211;-83
2021/11/05 00:15:49;;;;;;;53.50;30.17;;;;;;;5.92;100.00;100736.25;678469;29;1249;-83
2021/11/05 00:16:09;;;;;;;50.35;30.00;;;;;;;5.92;100.00;100744.03;682067;28;4369;-83
2021/11/05 00:16:30;;;;;;;52.03;30.20;;;;;;;5.91;100.00;100735.38;678576;29;4350;-83
2021/11/05 00:16:50;;;;;;;51.85;30.42;;;;;;;5.92;100.00;100751.81;678700;29;1879;-83
2021/11/05 00:17:11;;;;;;;53.07;30.07;;;;;;;5.90;100.00;100727.56;676190;29;1331;-83
2021/11/05 00:17:31;;;;;;;53.75;29.95;;;;;;;5.90;100.00;100745.75;677247;29;1360;-83
2021/11/05 00:17:52;;;;;;;51.40;30.03;;;;;;;5.90;100.00;100724.97;675271;29;1292;-83
2021/11/05 00:18:15;;;;;;;50.20;29.60;;;;;;;5.91;100.00;100750.06;676613;29;1452;-83
2021/11/05 00:18:45;;;;;;;53.63;30.20;;;;;;;5.92;100.00;100725.84;678247;29;6294;-83
2021/11/05 00:19:05;;;;;;;59.45;31.77;;;;;;;5.92;100.00;100751.81;677748;28;4393;-83
2021/11/05 00:19:26;;;;;;;64.10;33.53;;;;;;;5.94;100.00;100744.91;675128;29;2516;-84
2021/11/05 00:19:46;;;;;;;65.23;34.67;;;;;;;5.92;100.00;100737.09;675578;29;1881;-83
2021/11/05 00:20:08;;;;;;;62.30;33.83;;;;;;;5.92;100.00;100757.00;677856;29;1871;-83
2021/11/05 00:20:31;;;;;;;64.70;33.70;;;;;;;5.92;100.00;100744.88;675786;29;2864;-83
2021/11/05 00:20:54;;;;;;;62.28;33.25;;;;;;;5.92;100.00;100749.22;678728;29;1192;-83
2021/11/05 00:21:15;;;;;;;58.60;31.60;;;;;;;5.89;100.00;100742.25;677828;29;1694;-83
2021/11/05 00:21:45;;;;;;;58.92;31.73;;;;;;;5.89;100.00;100744.84;672829;29;1459;-83
2021/11/05 00:22:06;;;;;;;62.13;32.38;;;;;;;5.89;100.00;100741.38;673285;29;4411;-83
2021/11/05 00:22:27;;;;;;;61.65;33.03;;;;;;;5.91;100.00;100748.34;673170;29;1766;-83
2021/11/05 00:22:47;;;;;;;60.55;32.80;;;;;;;5.91;100.00;100734.47;675806;29;1317;-83
2021/11/05 00:23:08;;;;;;;57.17;31.77;;;;;;;5.90;100.00;100746.59;675274;29;1642;-83
2021/11/05 00:23:29;;;;;;;59.73;32.13;;;;;;;5.92;100.00;100733.66;675476;29;2050;-83
2021/11/05 00:23:50;;;;;;;56.50;31.58;;;;;;;5.90;100.00;100746.59;677961;29;1493;-83
2021/11/05 00:24:11;;;;;;;59.15;32.15;;;;;;;5.92;100.00;100749.22;678262;29;1230;-83
2021/11/05 00:24:31;;;;;;;58.33;31.37;;;;;;;5.92;100.00;100738.84;681011;28;1216;-83
2021/11/05 00:24:52;;;;;;;54.80;31.20;;;;;;;5.92;100.00;100736.25;678635;29;3827;-83
2021/11/05 00:25:19;;;;;;;57.97;31.80;;;;;;;5.92;100.00;100749.22;679825;28;4388;-83
2021/11/05 00:25:40;;;;;;;57.83;32.28;;;;;;;5.92;100.00;100738.84;680545;28;5615;-83
2021/11/05 00:26:01;;;;;;;57.33;32.45;;;;;;;5.89;100.00;100755.22;678380;29;1812;-83
2021/11/05 00:26:21;;;;;;;58.90;32.60;;;;;;;5.92;100.00;100746.63;677991;29;1273;-83
2021/11/05 00:26:42;;;;;;;59.30;32.33;;;;;;;5.90;100.00;100758.72;677816;29;1083;-84
2021/11/05 00:27:05;;;;;;;57.75;31.98;;;;;;;5.90;100.00;100753.53;676610;29;1627;-84
2021/11/05 00:27:26;;;;;;;57.47;32.03;;;;;;;5.90;100.00;100762.16;676814;29;1309;-84
2021/11/05 00:27:47;;;;;;;60.30;32.55;;;;;;;5.88;100.00;100755.19;679740;29;3433;-81
2021/11/05 00:28:08;;;;;;;63.20;33.05;;;;;;;5.90;100.00;100753.53;674821;29;4710;-84
2021/11/05 00:28:28;;;;;;;59.17;31.70;;;;;;;5.90;100.00;100737.94;675751;29;1536;-84
2021/11/05 00:28:48;;;;;;;58.03;31.70;;;;;;;5.89;100.00;100741.38;674968;29;1780;-83
2021/11/05 00:29:09;;;;;;;58.70;31.27;;;;;;;5.88;100.00;100745.69;677045;29;1482;-81
2021/11/05 00:29:29;;;;;;;58.47;31.92;;;;;;;5.88;100.00;100743.09;678072;29;1514;-81
2021/11/05 00:29:49;;;;;;;59.10;32.23;;;;;;;5.86;100.00;100754.31;679958;29;1665;-84
2021/11/05 00:30:20;;;;;;;58.03;31.50;;;;;;;5.86;100.00;100746.53;679925;28;2029;-82
2021/11/05 00:30:41;;;;;;;58.83;31.70;;;;;;;5.87;100.00;100741.38;681298;28;1741;-82
2021/11/05 00:31:01;;;;;;;57.70;32.08;;;;;;;5.85;100.00;100749.97;679501;28;4419;-82
2021/11/05 00:31:22;;;;;;;58.40;31.95;;;;;;;5.87;100.00;100751.75;679632;28;1713;-81
2021/11/05 00:31:42;;;;;;;58.57;32.40;;;;;;;5.86;100.00;100767.28;675850;29;1950;-83
2021/11/05 00:32:06;;;;;;;58.47;31.73;;;;;;;5.84;100.00;100759.44;677771;29;1726;-82
2021/11/05 00:32:27;;;;;;;56.83;30.65;;;;;;;5.87;100.00;100748.25;672486;29;1386;-82
2021/11/05 00:32:47;;;;;;;54.63;30.42;;;;;;;5.85;100.00;100765.53;676705;29;1049;-84
2021/11/05 00:33:11;;;;;;;58.67;31.30;;;;;;;5.83;100.00;100743.88;678456;29;1210;-83
2021/11/05 00:33:32;;;;;;;56.38;31.42;;;;;;;5.85;100.00;100748.25;675824;29;1349;-84
2021/11/05 00:33:55;;;;;;;54.63;30.02;;;;;;;5.85;100.00;100755.16;675419;29;2856;-83
2021/11/05 00:34:17;;;;;;;55.33;30.48;;;;;;;5.85;100.00;100750.84;674663;29;4376;-84
2021/11/05 00:34:47;;;;;;;55.90;30.52;;;;;;;5.85;100.00;100755.16;681035;29;1554;-85
2021/11/05 00:35:08;;;;;;;55.85;30.83;;;;;;;5.86;100.00;100767.28;678205;29;5720;-85
2021/11/05 00:35:29;;;;;;;54.80;30.35;;;;;;;5.86;100.00;100759.50;677655;29;1431;-84
2021/11/05 00:35:55;;;;;;;53.75;30.17;;;;;;;5.86;100.00;100738.75;676197;29;1714;-84
2021/11/05 00:36:19;;;;;;;52.55;29.55;;;;;;;5.90;100.00;100769.09;678868;29;1456;-83
2021/11/05 00:36:39;;;;;;;53.60;30.17;;;;;;;5.87;100.00;100756.94;680690;28;1711;-85
2021/11/05 00:37:01;;;;;;;51.90;29.70;;;;;;;5.88;100.00;100762.97;680728;28;4516;-85
2021/11/05 00:37:21;;;;;;;52.70;29.27;;;;;;;5.91;100.00;100750.94;681754;29;1198;-85
2021/11/05 00:37:45;;;;;;;53.20;30.30;;;;;;;5.93;100.00;100751.81;674106;29;1413;-85
2021/11/05 00:38:05;;;;;;;53.65;30.67;;;;;;;5.93;100.00;100749.22;669625;29;4598;-85
2021/11/05 00:38:28;;;;;;;53.00;30.25;;;;;;;5.94;100.00;100768.25;679552;29;1592;-85
2021/11/05 00:38:52;;;;;;;50.70;30.02;;;;;;;5.93;100.00;100764.81;678501;29;6760;-85
2021/11/05 00:39:16;;;;;;;50.28;29.35;;;;;;;5.93;100.00;100753.56;678632;29;3330;-85
2021/11/05 00:39:37;;;;;;;50.60;30.00;;;;;;;5.92;100.00;100757.00;677774;29;5545;-85
2021/11/05 00:39:57;;;;;;;52.28;29.98;;;;;;;5.93;100.00;100753.56;677294;29;2859;-85
2021/11/05 00:40:21;;;;;;;54.33;30.53;;;;;;;5.93;100.00;100751.81;674975;29;4347;-85
2021/11/05 00:40:42;;;;;;;55.60;31.02;;;;;;;5.94;100.00;100765.66;677887;29;1318;-85
2021/11/05 00:41:05;;;;;;;58.63;31.13;;;;;;;5.93;100.00;100756.16;673753;29;1450;-85
2021/11/05 00:41:26;;;;;;;58.72;31.65;;;;;;;5.94;100.00;100776.03;673719;29;4725;-85
2021/11/05 00:41:49;;;;;;;62.40;33.17;;;;;;;5.93;100.00;100774.31;679965;28;1319;-85
2021/11/05 00:42:15;;;;;;;63.67;33.80;;;;;;;5.91;100.00;100770.81;678768;29;5447;-85
2021/11/05 00:42:46;;;;;;;67.03;33.92;;;;;;;5.91;100.00;100766.50;678357;29;2377;-85
2021/11/05 00:43:06;;;;;;;62.05;33.20;;;;;;;5.89;100.00;100756.97;678837;28;5615;-85
2021/11/05 00:43:27;;;;;;;60.80;32.05;;;;;;;5.88;100.00;100774.22;678620;29;1675;-85
2021/11/05 00:43:50;;;;;;;61.97;31.80;;;;;;;5.88;100.00;100778.56;681430;29;1491;-85
2021/11/05 00:44:11;;;;;;;64.20;32.60;;;;;;;5.87;100.00;100753.44;681364;28;5225;-85
2021/11/05 00:44:32;;;;;;;63.60;32.80;;;;;;;5.86;100.00;100759.50;681472;29;1512;-85
2021/11/05 00:44:52;;;;;;;62.33;32.70;;;;;;;5.86;100.00;100769.88;676665;29;1146;-85
2021/11/05 00:45:15;;;;;;;62.80;31.83;;;;;;;5.89;100.00;100752.63;679876;29;1735;-85
2021/11/05 00:45:39;;;;;;;62.50;31.45;;;;;;;5.90;100.00;100750.94;676310;29;2453;-84
2021/11/05 00:45:59;;;;;;;60.45;32.08;;;;;;;5.87;100.00;100774.19;675434;29;4423;-85
2021/11/05 00:46:20;;;;;;;61.70;32.13;;;;;;;5.86;100.00;100778.53;679142;29;1360;-85
2021/11/05 00:46:40;;;;;;;60.60;31.98;;;;;;;5.87;100.00;100772.50;678779;29;1243;-85
2021/11/05 00:47:01;;;;;;;62.00;32.07;;;;;;;5.89;100.00;100756.97;683541;28;1339;-84
2021/11/05 00:47:21;;;;;;;63.33;32.03;;;;;;;5.85;100.00;100753.44;677977;29;1174;-85
2021/11/05 00:47:42;;;;;;;64.18;33.00;;;;;;;5.85;100.00;100786.28;677139;29;1282;-85
2021/11/05 00:48:08;;;;;;;62.67;33.17;;;;;;;5.84;100.00;100762.06;676114;29;1201;-84
2021/11/05 00:48:29;;;;;;;60.35;31.60;;;;;;;5.83;100.00;100772.41;672293;29;1568;-85
2021/11/05 00:48:52;;;;;;;63.47;32.28;;;;;;;5.85;100.00;100775.91;673757;29;1609;-85
2021/11/05 00:49:16;;;;;;;62.80;31.90;;;;;;;5.85;100.00;100791.47;680438;28;4479;-85
2021/11/05 00:49:37;;;;;;;59.52;31.06;;;;;;;5.83;100.00;100777.59;683751;28;1470;-85
2021/11/05 00:50:00;;;;;;;62.03;31.47;;;;;;;5.80;100.00;100768.94;680612;28;1712;-85
2021/11/05 00:50:21;;;;;;;62.38;31.85;;;;;;;5.80;100.00;100778.41;674660;29;1509;-85
2021/11/05 00:50:44;;;;;;;63.85;31.70;;;;;;;5.83;100.00;100785.38;678593;29;1429;-85
2021/11/05 00:51:07;;;;;;;63.03;31.17;;;;;;;5.83;100.00;100754.25;681278;28;5305;-85
2021/11/05 00:51:28;;;;;;;64.25;31.75;;;;;;;5.79;100.00;100782.75;684597;28;5484;-85
2021/11/05 00:51:51;;;;;;;65.13;32.08;;;;;;;5.80;100.00;100791.38;678586;29;1278;-86
2021/11/05 00:52:12;;;;;;;65.28;33.13;;;;;;;5.77;100.00;100763.69;675637;29;5340;-85
2021/11/05 00:52:35;;;;;;;67.90;33.20;;;;;;;5.74;100.00;100786.97;676688;29;1180;-85
2021/11/05 00:52:56;;;;;;;70.03;33.38;;;;;;;5.75;100.00;100791.31;676453;29;4956;-85
2021/11/05 00:53:17;;;;;;;66.35;33.35;;;;;;;5.74;100.00;100758.44;680959;28;1441;-85
2021/11/05 00:53:37;;;;;;;63.60;32.77;;;;;;;5.76;100.00;100784.41;681555;28;1308;-85
2021/11/05 00:54:01;;;;;;;64.50;33.00;;;;;;;5.77;100.00;100773.19;677139;28;1918;-86
2021/11/05 00:54:21;;;;;;;66.88;32.17;;;;;;;5.76;100.00;100787.88;674197;29;5045;-86
2021/11/05 00:54:42;;;;;;;67.93;32.77;;;;;;;5.76;100.00;100776.63;673127;29;3395;-85
2021/11/05 00:55:07;;;;;;;70.07;33.50;;;;;;;5.76;100.00;100771.44;674347;29;4473;-85
2021/11/05 00:55:27;;;;;;;68.68;33.45;;;;;;;5.77;100.00;100807.81;677728;29;2059;-85
2021/11/05 00:55:48;;;;;;;69.47;32.57;;;;;;;5.77;100.00;100770.59;677506;29;1225;-86
2021/11/05 00:56:09;;;;;;;66.57;32.85;;;;;;;5.78;100.00;100788.78;678800;29;1275;-85
2021/11/05 00:56:29;;;;;;;64.55;32.05;;;;;;;5.76;100.00;100774.91;674967;29;1279;-85
2021/11/05 00:56:50;;;;;;;66.20;32.03;;;;;;;5.79;100.00;100774.09;673940;29;1327;-85
2021/11/05 00:57:11;;;;;;;69.35;32.83;;;;;;;5.77;100.00;100768.88;676661;29;1281;-85
2021/11/05 00:57:31;;;;;;;66.72;32.95;;;;;;;5.77;100.00;100768.00;675367;29;1824;-85
2021/11/05 00:57:52;;;;;;;68.10;32.90;;;;;;;5.77;100.00;100788.75;676319;29;1430;-85
2021/11/05 00:58:17;;;;;;;71.25;33.42;;;;;;;5.77;100.00;100800.03;669444;29;4502;-85
2021/11/05 00:58:40;;;;;;;68.82;32.95;;;;;;;5.75;100.00;100788.72;677383;29;1152;-85
2021/11/05 00:59:00;;;;;;;69.37;33.40;;;;;;;5.78;100.00;100791.38;678857;29;1676;-85
2021/11/05 00:59:21;;;;;;;67.10;32.83;;;;;;;5.79;100.00;100792.25;679241;29;1349;-85
2021/11/05 00:59:41;;;;;;;62.53;31.50;;;;;;;5.79;100.00;100795.72;675070;29;1142;-85
2021/11/05 01:00:12;;;;;;;60.60;30.30;;;;;;;5.79;100.00;100774.97;677977;29;1771;-86
2021/11/05 01:00:35;;;;;;;59.25;30.60;;;;;;;5.80;100.00;100774.13;675899;29;1888;-85
2021/11/05 01:00:56;;;;;;;57.50;29.88;;;;;;;5.80;100.00;100789.69;680644;29;3336;-85
2021/11/05 01:01:17;;;;;;;56.53;29.63;;;;;;;5.82;100.00;100786.25;678709;28;4385;-85
2021/11/05 01:01:37;;;;;;;57.30;30.17;;;;;;;5.80;100.00;100779.31;677129;29;1537;-85
2021/11/05 01:01:58;;;;;;;57.90;30.77;;;;;;;5.83;100.00;100772.41;679180;29;1816;-85
2021/11/05 01:02:19;;;;;;;62.00;32.00;;;;;;;5.83;100.00;100772.41;678291;29;1365;-85
2021/11/05 01:02:40;;;;;;;59.88;31.75;;;;;;;5.82;100.00;100781.06;679659;28;1298;-86
2021/11/05 01:03:01;;;;;;;61.60;32.13;;;;;;;5.82;100.00;100796.63;680730;28;1442;-85
2021/11/05 01:03:21;;;;;;;62.55;32.20;;;;;;;5.84;100.00;100780.22;681779;28;2578;-86
2021/11/05 01:03:42;;;;;;;62.03;31.40;;;;;;;5.85;100.00;100781.09;681543;28;3595;-85
2021/11/05 01:04:05;;;;;;;59.88;31.33;;;;;;;5.84;100.00;100793.19;681633;28;4451;-85
2021/11/05 01:04:26;;;;;;;57.08;30.77;;;;;;;5.86;100.00;100793.25;681575;28;1763;-85
2021/11/05 01:04:46;;;;;;;57.20;31.00;;;;;;;5.87;100.00;100793.25;681655;28;1401;-85
2021/11/05 01:05:08;;;;;;;60.58;31.52;;;;;;;5.87;100.00;100776.78;680464;29;1089;-85
2021/11/05 01:05:33;;;;;;;61.47;31.00;;;;;;;5.87;100.00;100776.78;682751;28;1503;-85
2021/11/05 01:05:56;;;;;;;60.45;31.10;;;;;;;5.86;100.00;100794.09;682935;28;1341;-85
2021/11/05 01:06:20;;;;;;;58.37;31.77;;;;;;;5.88;100.00;100781.16;683570;28;1804;-85
2021/11/05 01:06:40;;;;;;;53.97;30.45;;;;;;;5.88;100.00;100804.50;682942;28;2143;-85
2021/11/05 01:07:02;;;;;;;55.90;29.87;;;;;;;5.87;100.00;100801.03;677994;28;4435;-84
2021/11/05 01:07:28;;;;;;;54.22;29.63;;;;;;;5.89;100.00;100806.25;677317;29;1716;-84
2021/11/05 01:07:48;;;;;;;54.65;30.08;;;;;;;5.89;100.00;100782.91;678106;29;1217;-85
2021/11/05 01:08:12;;;;;;;57.03;30.92;;;;;;;5.89;100.00;100814.03;679299;29;1246;-84
2021/11/05 01:08:36;;;;;;;55.20;30.73;;;;;;;5.87;100.00;100784.59;678996;29;1937;-85
2021/11/05 01:08:56;;;;;;;53.20;30.35;;;;;;;5.87;100.00;100782.88;678176;29;1353;-84
2021/11/05 01:09:17;;;;;;;54.40;30.60;;;;;;;5.89;100.00;100791.53;672573;29;2296;-85
2021/11/05 01:09:37;;;;;;;55.07;30.20;;;;;;;5.88;100.00;100784.59;676149;29;2243;-85
2021/11/05 01:09:58;;;;;;;60.25;31.23;;;;;;;5.89;100.00;100817.50;678981;28;4423;-85
2021/11/05 01:10:19;;;;;;;62.75;31.60;;;;;;;5.90;100.00;100801.09;675885;29;1322;-85
2021/11/05 01:10:39;;;;;;;60.63;30.93;;;;;;;5.90;100.00;100790.72;676174;29;1175;-85
2021/11/05 01:11:00;;;;;;;61.33;31.83;;;;;;;5.90;100.00;100784.66;671921;29;1253;-84
2021/11/05 01:11:21;;;;;;;58.88;31.55;;;;;;;5.88;100.00;100807.97;678528;29;1346;-85
2021/11/05 01:11:41;;;;;;;56.13;31.37;;;;;;;5.90;100.00;100802.81;679551;29;1255;-85
2021/11/05 01:12:08;;;;;;;59.40;31.48;;;;;;;5.89;100.00;100811.44;676391;29;1226;-86
2021/11/05 01:12:29;;;;;;;57.63;31.42;;;;;;;5.90;100.00;100792.44;674957;29;2602;-85
2021/11/05 01:12:55;;;;;;;59.92;31.75;;;;;;;5.88;100.00;100804.50;673088;29;3375;-84
2021/11/05 01:13:15;;;;;;;59.15;30.83;;;;;;;5.86;100.00;100814.84;667767;29;4397;-85
2021/11/05 01:13:40;;;;;;;57.47;31.40;;;;;;;5.89;100.00;100808.84;680378;28;1414;-85
2021/11/05 01:14:01;;;;;;;57.95;31.98;;;;;;;5.87;100.00;100810.53;684127;28;1880;-85
2021/11/05 01:14:21;;;;;;;57.92;31.52;;;;;;;5.87;100.00;100819.22;681261;28;1181;-85
2021/11/05 01:14:45;;;;;;;62.33;31.63;;;;;;;5.87;100.00;100795.84;678893;29;1692;-85
2021/11/05 01:15:08;;;;;;;65.22;32.42;;;;;;;5.86;100.00;100822.63;681242;28;1119;-85
2021/11/05 01:15:28;;;;;;;61.42;31.88;;;;;;;5.87;100.00;100789.78;674183;29;3831;-84
2021/11/05 01:15:50;;;;;;;61.55;31.98;;;;;;;5.83;100.00;100809.63;675894;29;1378;-85
2021/11/05 01:16:10;;;;;;;63.47;31.25;;;;;;;5.85;100.00;100804.47;675020;29;4408;-85
2021/11/05 01:16:31;;;;;;;62.10;31.77;;;;;;;5.86;100.00;100814.00;680681;29;1393;-85
2021/11/05 01:16:52;;;;;;;59.58;31.35;;;;;;;5.83;100.00;100799.25;680989;28;3276;-85
2021/11/05 01:17:12;;;;;;;58.60;30.43;;;;;;;5.85;100.00;100812.25;682750;28;1966;-85
2021/11/05 01:17:36;;;;;;;57.53;30.35;;;;;;;5.88;100.00;100827.84;678402;29;1399;-84
2021/11/05 01:17:57;;;;;;;55.88;31.15;;;;;;;5.87;100.00;100806.22;678741;29;1559;-86
2021/11/05 01:18:21;;;;;;;54.58;30.35;;;;;;;5.86;100.00;100788.03;682888;28;3523;-84
2021/11/05 01:18:42;;;;;;;55.30;30.88;;;;;;;5.89;100.00;100803.66;681089;28;5334;-86
2021/11/05 01:19:04;;;;;;;59.17;30.98;;;;;;;5.87;100.00;100821.81;680556;28;4369;-85
2021/11/05 01:19:30;;;;;;;59.63;30.92;;;;;;;5.87;100.00;100794.97;676106;29;1586;-85
2021/11/05 01:19:51;;;;;;;59.20;31.05;;;;;;;5.88;100.00;100823.53;675817;29;1234;-85
2021/11/05 01:20:15;;;;;;;57.28;30.30;;;;;;;5.89;100.00;100814.03;679337;29;1546;-85
2021/11/05 01:20:36;;;;;;;60.75;31.50;;;;;;;5.88;100.00;100796.72;678905;29;1842;-85
2021/11/05 01:20:56;;;;;;;59.38;31.13;;;;;;;5.89;100.00;100820.09;680234;29;1276;-85
2021/11/05 01:21:17;;;;;;;58.72;30.58;;;;;;;5.90;100.00;100801.09;681337;29;1485;-86
2021/11/05 01:21:38;;;;;;;59.10;31.15;;;;;;;5.89;100.00;100804.53;679966;29;2157;-84
2021/11/05 01:21:58;;;;;;;59.00;31.50;;;;;;;5.90;100.00;100808.88;680303;28;4408;-85
2021/11/05 01:22:19;;;;;;;59.92;31.23;;;;;;;5.91;100.00;100823.59;679346;29;1339;-84
2021/11/05 01:22:40;;;;;;;54.93;30.23;;;;;;;5.90;100.00;100800.22;676444;29;1247;-85
2021/11/05 01:23:00;;;;;;;53.63;29.02;;;;;;;5.90;100.00;100814.06;679405;29;1261;-85
2021/11/05 01:23:21;;;;;;;51.55;28.90;;;;;;;5.91;100.00;100807.13;675867;29;1047;-85
2021/11/05 01:23:45;;;;;;;53.67;30.25;;;;;;;5.92;100.00;100827.91;676931;29;1281;-85
2021/11/05 01:24:05;;;;;;;53.45;29.55;;;;;;;5.91;100.00;100822.72;678158;29;1197;-85
2021/11/05 01:24:28;;;;;;;57.07;30.43;;;;;;;5.93;100.00;100810.66;678909;29;3919;-85
2021/11/05 01:24:49;;;;;;;56.88;31.13;;;;;;;5.92;100.00;100814.09;681722;28;1667;-85
2021/11/05 01:25:13;;;;;;;57.43;31.43;;;;;;;5.91;100.00;100801.94;681102;28;4401;-85
2021/11/05 01:25:34;;;;;;;60.88;31.52;;;;;;;5.92;100.00;100807.16;681831;29;1803;-85
2021/11/05 01:25:55;;;;;;;59.78;30.98;;;;;;;5.92;100.00;100821.88;677867;29;1266;-85
2021/11/05 01:26:16;;;;;;;60.70;30.70;;;;;;;5.92;100.00;100809.75;678935;29;1679;-84
2021/11/05 01:26:36;;;;;;;58.50;31.60;;;;;;;5.90;100.00;100810.59;678693;29;1198;-85
2021/11/05 01:26:58;;;;;;;61.45;32.55;;;;;;;5.87;100.00;100820.91;681503;28;1324;-85
2021/11/05 01:27:18;;;;;;;61.25;31.23;;;;;;;5.90;100.00;100810.59;678871;29;2544;-85
2021/11/05 01:27:40;;;;;;;60.85;31.10;;;;;;;5.93;100.00;100815.84;672160;29;3114;-84
2021/11/05 01:28:02;;;;;;;62.50;31.63;;;;;;;5.93;100.00;100805.47;674328;29;4486;-85
2021/11/05 01:28:25;;;;;;;60.47;30.75;;;;;;;5.91;100.00;100830.50;673989;29;1065;-84
2021/11/05 01:28:46;;;;;;;62.70;30.80;;;;;;;5.91;100.00;100801.94;677111;29;1288;-85
2021/11/05 01:29:09;;;;;;;65.32;31.10;;;;;;;5.89;100.00;100835.66;680540;29;1419;-85
2021/11/05 01:29:29;;;;;;;63.17;31.38;;;;;;;5.91;100.00;100825.31;678659;29;5547;-85
2021/11/05 01:29:52;;;;;;;63.30;31.17;;;;;;;5.90;100.00;100832.22;681154;28;956;-85
2021/11/05 01:30:15;;;;;;;64.38;31.10;;;;;;;5.91;100.00;100843.47;679355;29;1024;-85
2021/11/05 01:30:38;;;;;;;67.80;32.42;;;;;;;5.89;100.00;100821.81;679564;29;1582;-85
2021/11/05 01:30:59;;;;;;;72.28;33.35;;;;;;;5.90;100.00;100815.78;677175;29;4460;-85
2021/11/05 01:31:23;;;;;;;71.13;32.50;;;;;;;5.90;100.00;100810.59;674624;29;1323;-84
2021/11/05 01:31:47;;;;;;;67.55;32.58;;;;;;;5.88;100.00;100830.44;678469;29;1015;-85
2021/11/05 01:32:11;;;;;;;67.70;31.95;;;;;;;5.88;100.00;100833.03;680057;29;4972;-85
2021/11/05 01:32:32;;;;;;;71.30;31.95;;;;;;;5.89;100.00;100832.19;681505;28;6323;-85
2021/11/05 01:32:53;;;;;;;69.43;32.83;;;;;;;5.89;100.00;100837.38;678929;29;1265;-85
2021/11/05 01:33:14;;;;;;;69.13;31.50;;;;;;;5.90;100.00;100820.97;678957;29;2214;-85
2021/11/05 01:33:35;;;;;;;66.47;31.50;;;;;;;5.90;100.00;100815.78;676167;29;4150;-85
2021/11/05 01:34:05;;;;;;;67.13;32.40;;;;;;;5.90;100.00;100824.44;676561;29;1907;-85
2021/11/05 01:34:29;;;;;;;64.20;32.08;;;;;;;5.90;100.00;100826.19;678005;29;5281;-85
2021/11/05 01:34:50;;;;;;;59.13;31.35;;;;;;;5.91;100.00;100814.91;678785;29;1474;-85
2021/11/05 01:35:14;;;;;;;57.55;30.80;;;;;;;5.91;100.00;100813.22;676261;29;1487;-85
2021/11/05 01:35:36;;;;;;;59.83;30.88;;;;;;;5.92;100.00;100814.09;677783;29;1235;-85
2021/11/05 01:35:57;;;;;;;63.60;31.70;;;;;;;5.91;100.00;100812.31;679281;29;1427;-85
2021/11/05 01:36:20;;;;;;;66.72;31.50;;;;;;;5.91;100.00;100831.38;680740;29;3037;-84
2021/11/05 01:36:41;;;;;;;59.80;31.40;;;;;;;6.00;100.00;100811.66;681257;28;1603;-85
2021/11/05 01:37:01;;;;;;;61.70;31.48;;;;;;;6.05;100.00;100823.84;680549;28;4389;-85
2021/11/05 01:37:22;;;;;;;68.20;31.73;;;;;;;6.05;100.00;100831.66;678989;29;1091;-85
2021/11/05 01:37:43;;;;;;;64.13;31.30;;;;;;;6.03;100.00;100817.75;677195;29;1190;-85
2021/11/05 01:38:06;;;;;;;58.38;31.20;;;;;;;5.99;100.00;100828.94;676851;29;1898;-85
2021/11/05 01:38:27;;;;;;;59.20;32.10;;;;;;;6.01;100.00;100818.56;676837;29;1423;-84
2021/11/05 01:38:47;;;;;;;61.47;32.47;;;;;;;5.99;100.00;100825.47;678920;29;1615;-84
2021/11/05 01:39:08;;;;;;;61.40;31.88;;;;;;;5.97;100.00;100825.41;676646;29;3698;-85
2021/11/05 01:39:28;;;;;;;59.17;31.52;;;;;;;5.93;100.00;100811.50;677320;29;3293;-84
2021/11/05 01:39:49;;;;;;;61.33;32.57;;;;;;;5.95;100.00;100827.09;678523;29;1764;-85
2021/11/05 01:40:11;;;;;;;62.20;32.33;;;;;;;5.95;100.00;100825.41;672699;29;4524;-85
2021/11/05 01:40:32;;;;;;;62.60;32.03;;;;;;;5.94;100.00;100817.56;676480;29;1254;-85
2021/11/05 01:40:53;;;;;;;63.22;32.40;;;;;;;5.94;100.00;100822.75;673427;29;1186;-85
2021/11/05 01:41:14;;;;;;;61.97;33.28;;;;;;;5.94;100.00;100835.72;675409;29;1134;-85
2021/11/05 01:41:41;;;;;;;66.07;33.70;;;;;;;5.92;100.00;100837.44;677311;29;1256;-85
2021/11/05 01:42:01;;;;;;;67.15;33.42;;;;;;;5.91;100.00;100821.00;679451;29;2312;-85